JES102 SCEL-SCSE
Flight info
| Callsign | JES102 |
|---|---|
| Flight time | 0h 42m |
| Altitude | 28000 |
| Route | DONTI5B DONTI UQ802 KUGAP KUGAP5 |
| Aircraft | A321/M-SDE3FGHIRWY/LB1 |
Departure
| Time | 2026-04-20 20:43 |
|---|---|
| Airport | Comodoro Arturo Merino Benítez International Airport (SCEL) |
Arrival
| Time | 2026-04-20 21:26 |
|---|---|
| Airport | La Florida Airport (SCSE) |
| Time | Latitude | Longitude | Altitude | Speed | Heading |
|---|---|---|---|---|---|
| 2026-04-20 20:05 | -33.39746 | -70.79736 | 1565 ft | 0 kts | 355° |
| 2026-04-20 20:29 | -33.39757 | -70.79735 | 1565 ft | 4 kts | 355° |
| 2026-04-20 20:29 | -33.39784 | -70.79732 | 1565 ft | 4 kts | 354° |
| 2026-04-20 20:30 | -33.39810 | -70.79728 | 1565 ft | 4 kts | 344° |
| 2026-04-20 20:30 | -33.39832 | -70.79716 | 1565 ft | 4 kts | 301° |
| 2026-04-20 20:30 | -33.39836 | -70.79706 | 1564 ft | 0 kts | 266° |
| 2026-04-20 20:35 | -33.39836 | -70.79707 | 1564 ft | 0 kts | 266° |
| 2026-04-20 20:35 | -33.39837 | -70.79719 | 1565 ft | 4 kts | 266° |
| 2026-04-20 20:35 | -33.39840 | -70.79782 | 1565 ft | 11 kts | 266° |
| 2026-04-20 20:35 | -33.39845 | -70.79895 | 1565 ft | 14 kts | 268° |
| 2026-04-20 20:36 | -33.39848 | -70.79988 | 1566 ft | 11 kts | 269° |
| 2026-04-20 20:36 | -33.39804 | -70.80028 | 1566 ft | 9 kts | 358° |
| 2026-04-20 20:36 | -33.39739 | -70.80031 | 1566 ft | 11 kts | 358° |
| 2026-04-20 20:36 | -33.39652 | -70.80035 | 1566 ft | 13 kts | 357° |
| 2026-04-20 20:37 | -33.39557 | -70.80040 | 1566 ft | 14 kts | 357° |
| 2026-04-20 20:37 | -33.39459 | -70.80045 | 1566 ft | 14 kts | 357° |
| 2026-04-20 20:37 | -33.39360 | -70.80051 | 1566 ft | 14 kts | 357° |
| 2026-04-20 20:37 | -33.39259 | -70.80057 | 1566 ft | 15 kts | 357° |
| 2026-04-20 20:38 | -33.39155 | -70.80063 | 1566 ft | 15 kts | 356° |
| 2026-04-20 20:38 | -33.39050 | -70.80070 | 1567 ft | 15 kts | 356° |
| 2026-04-20 20:38 | -33.38944 | -70.80077 | 1567 ft | 15 kts | 357° |
| 2026-04-20 20:38 | -33.38834 | -70.80083 | 1567 ft | 17 kts | 357° |
| 2026-04-20 20:39 | -33.38709 | -70.80090 | 1567 ft | 19 kts | 358° |
| 2026-04-20 20:39 | -33.38570 | -70.80097 | 1567 ft | 21 kts | 357° |
| 2026-04-20 20:39 | -33.38413 | -70.80104 | 1566 ft | 23 kts | 358° |
| 2026-04-20 20:39 | -33.38249 | -70.80114 | 1566 ft | 24 kts | 358° |
| 2026-04-20 20:40 | -33.38084 | -70.80122 | 1566 ft | 24 kts | 358° |
| 2026-04-20 20:40 | -33.37915 | -70.80129 | 1566 ft | 25 kts | 357° |
| 2026-04-20 20:40 | -33.37743 | -70.80140 | 1566 ft | 23 kts | 357° |
| 2026-04-20 20:40 | -33.37593 | -70.80149 | 1566 ft | 20 kts | 360° |
| 2026-04-20 20:41 | -33.37458 | -70.80154 | 1566 ft | 19 kts | 358° |
| 2026-04-20 20:41 | -33.37335 | -70.80160 | 1567 ft | 17 kts | 357° |
| 2026-04-20 20:41 | -33.37227 | -70.80167 | 1567 ft | 15 kts | 356° |
| 2026-04-20 20:41 | -33.37134 | -70.80191 | 1567 ft | 12 kts | 327° |
| 2026-04-20 20:42 | -33.37099 | -70.80260 | 1570 ft | 7 kts | 278° |
| 2026-04-20 20:42 | -33.37108 | -70.80316 | 1573 ft | 8 kts | 247° |
| 2026-04-20 20:42 | -33.37171 | -70.80371 | 1573 ft | 16 kts | 190° |
| 2026-04-20 20:42 | -33.37342 | -70.80365 | 1573 ft | 46 kts | 177° |
| 2026-04-20 20:43 | -33.37874 | -70.80338 | 1573 ft | 105 kts | 177° |
| 2026-04-20 20:43 | -33.38771 | -70.80289 | 1575 ft | 151 kts | 177° |
| 2026-04-20 20:43 | -33.39940 | -70.80235 | 1671 ft | 180 kts | 177° |
| 2026-04-20 20:43 | -33.41188 | -70.80169 | 2334 ft | 178 kts | 176° |
| 2026-04-20 20:44 | -33.42416 | -70.80077 | 2956 ft | 182 kts | 176° |
| 2026-04-20 20:44 | -33.43709 | -70.79990 | 3481 ft | 190 kts | 177° |
| 2026-04-20 20:44 | -33.45075 | -70.79912 | 3637 ft | 209 kts | 178° |
| 2026-04-20 20:44 | -33.46604 | -70.79828 | 3765 ft | 231 kts | 177° |
| 2026-04-20 20:45 | -33.48268 | -70.79744 | 4092 ft | 245 kts | 180° |
| 2026-04-20 20:45 | -33.49913 | -70.80277 | 4516 ft | 255 kts | 214° |
| 2026-04-20 20:45 | -33.51036 | -70.81954 | 4968 ft | 266 kts | 252° |
| 2026-04-20 20:45 | -33.51154 | -70.84149 | 5628 ft | 267 kts | 282° |
| 2026-04-20 20:46 | -33.50630 | -70.86281 | 6420 ft | 267 kts | 294° |
| 2026-04-20 20:46 | -33.49943 | -70.88343 | 7226 ft | 265 kts | 295° |
| 2026-04-20 20:46 | -33.49272 | -70.90404 | 8025 ft | 266 kts | 294° |
| 2026-04-20 20:46 | -33.48667 | -70.92497 | 8727 ft | 268 kts | 291° |
| 2026-04-20 20:47 | -33.48121 | -70.94637 | 8953 ft | 267 kts | 291° |
| 2026-04-20 20:47 | -33.47365 | -70.96640 | 8990 ft | 262 kts | 305° |
| 2026-04-20 20:47 | -33.46200 | -70.98300 | 9028 ft | 262 kts | 320° |
| 2026-04-20 20:47 | -33.44669 | -70.99507 | 9690 ft | 264 kts | 334° |
| 2026-04-20 20:48 | -33.42942 | -71.00271 | 10368 ft | 270 kts | 340° |
| 2026-04-20 20:48 | -33.41109 | -71.01003 | 10519 ft | 293 kts | 340° |
| 2026-04-20 20:48 | -33.39072 | -71.01813 | 10654 ft | 315 kts | 340° |
| 2026-04-20 20:48 | -33.36974 | -71.02637 | 11049 ft | 326 kts | 340° |
| 2026-04-20 20:49 | -33.34806 | -71.03485 | 11642 ft | 328 kts | 339° |
| 2026-04-20 20:49 | -33.32623 | -71.04338 | 12233 ft | 332 kts | 339° |
| 2026-04-20 20:49 | -33.30416 | -71.05203 | 12853 ft | 336 kts | 339° |
| 2026-04-20 20:49 | -33.28184 | -71.06076 | 13496 ft | 339 kts | 338° |
| 2026-04-20 20:50 | -33.25927 | -71.06957 | 14117 ft | 342 kts | 338° |
| 2026-04-20 20:50 | -33.23644 | -71.07844 | 14643 ft | 346 kts | 338° |
| 2026-04-20 20:50 | -33.21345 | -71.08736 | 15179 ft | 349 kts | 338° |
| 2026-04-20 20:50 | -33.19020 | -71.09640 | 15704 ft | 353 kts | 337° |
| 2026-04-20 20:51 | -33.16669 | -71.10559 | 16227 ft | 356 kts | 337° |
| 2026-04-20 20:51 | -33.14301 | -71.11485 | 16757 ft | 360 kts | 337° |
| 2026-04-20 20:51 | -33.11913 | -71.12419 | 17273 ft | 363 kts | 337° |
| 2026-04-20 20:51 | -33.09501 | -71.13360 | 17797 ft | 366 kts | 337° |
| 2026-04-20 20:52 | -33.07103 | -71.14292 | 18245 ft | 369 kts | 336° |
| 2026-04-20 20:52 | -33.04649 | -71.15244 | 18668 ft | 373 kts | 336° |
| 2026-04-20 20:52 | -33.02179 | -71.16205 | 19114 ft | 375 kts | 336° |
| 2026-04-20 20:52 | -32.99690 | -71.17175 | 19564 ft | 377 kts | 336° |
| 2026-04-20 20:53 | -32.97189 | -71.18150 | 19973 ft | 380 kts | 336° |
| 2026-04-20 20:53 | -32.94583 | -71.18886 | 20376 ft | 390 kts | 346° |
| 2026-04-20 20:53 | -32.91835 | -71.19071 | 20783 ft | 399 kts | 352° |
| 2026-04-20 20:53 | -32.89051 | -71.19120 | 21226 ft | 401 kts | 352° |
| 2026-04-20 20:54 | -32.86252 | -71.19173 | 21640 ft | 404 kts | 352° |
| 2026-04-20 20:54 | -32.83428 | -71.19229 | 22047 ft | 407 kts | 352° |
| 2026-04-20 20:54 | -32.80582 | -71.19286 | 22440 ft | 410 kts | 352° |
| 2026-04-20 20:54 | -32.77722 | -71.19341 | 22851 ft | 413 kts | 352° |
| 2026-04-20 20:55 | -32.74836 | -71.19392 | 23248 ft | 415 kts | 352° |
| 2026-04-20 20:55 | -32.71934 | -71.19441 | 23636 ft | 418 kts | 352° |
| 2026-04-20 20:55 | -32.69052 | -71.19491 | 23972 ft | 421 kts | 352° |
| 2026-04-20 20:55 | -32.66115 | -71.19544 | 24301 ft | 423 kts | 352° |
| 2026-04-20 20:56 | -32.63161 | -71.19600 | 24625 ft | 425 kts | 352° |
| 2026-04-20 20:56 | -32.60194 | -71.19658 | 24882 ft | 428 kts | 352° |
| 2026-04-20 20:56 | -32.57203 | -71.19715 | 25219 ft | 430 kts | 352° |
| 2026-04-20 20:56 | -32.54208 | -71.19769 | 25532 ft | 432 kts | 352° |
| 2026-04-20 20:57 | -32.51193 | -71.19823 | 25863 ft | 434 kts | 352° |
| 2026-04-20 20:57 | -32.48165 | -71.19876 | 26164 ft | 436 kts | 352° |
| 2026-04-20 20:57 | -32.45128 | -71.19931 | 26469 ft | 437 kts | 352° |
| 2026-04-20 20:57 | -32.42075 | -71.19988 | 26797 ft | 439 kts | 352° |
| 2026-04-20 20:58 | -32.39013 | -71.20043 | 27124 ft | 441 kts | 352° |
| 2026-04-20 20:58 | -32.35935 | -71.20097 | 27433 ft | 442 kts | 352° |
| 2026-04-20 20:58 | -32.32855 | -71.20151 | 27738 ft | 443 kts | 352° |
| 2026-04-20 20:58 | -32.29768 | -71.20209 | 28020 ft | 445 kts | 351° |
| 2026-04-20 20:59 | -32.26662 | -71.20269 | 28166 ft | 444 kts | 351° |
| 2026-04-20 20:59 | -32.23610 | -71.20317 | 28190 ft | 435 kts | 351° |
| 2026-04-20 20:59 | -32.17636 | -71.20410 | 28183 ft | 430 kts | 351° |
| 2026-04-20 21:00 | -32.11665 | -71.20522 | 28186 ft | 428 kts | 351° |
| 2026-04-20 21:00 | -32.05704 | -71.20641 | 28179 ft | 427 kts | 350° |
| 2026-04-20 21:01 | -31.99764 | -71.20752 | 28171 ft | 426 kts | 350° |
| 2026-04-20 21:01 | -31.93836 | -71.20855 | 28171 ft | 425 kts | 350° |
| 2026-04-20 21:02 | -31.87909 | -71.20962 | 28167 ft | 426 kts | 350° |
| 2026-04-20 21:02 | -31.81993 | -71.21068 | 28170 ft | 424 kts | 350° |
| 2026-04-20 21:03 | -31.76084 | -71.21118 | 28180 ft | 426 kts | 352° |
| 2026-04-20 21:03 | -31.70149 | -71.20797 | 28174 ft | 428 kts | 354° |
| 2026-04-20 21:04 | -31.64232 | -71.20332 | 28168 ft | 428 kts | 354° |
| 2026-04-20 21:04 | -31.58288 | -71.19913 | 28153 ft | 427 kts | 353° |
| 2026-04-20 21:05 | -31.52355 | -71.19558 | 28153 ft | 427 kts | 353° |
| 2026-04-20 21:05 | -31.46437 | -71.19213 | 27801 ft | 422 kts | 353° |
| 2026-04-20 21:06 | -31.43515 | -71.19038 | 27239 ft | 419 kts | 353° |
| 2026-04-20 21:06 | -31.40607 | -71.18862 | 26712 ft | 415 kts | 353° |
| 2026-04-20 21:06 | -31.37733 | -71.18688 | 26172 ft | 412 kts | 354° |
| 2026-04-20 21:06 | -31.34879 | -71.18513 | 25653 ft | 410 kts | 354° |
| 2026-04-20 21:07 | -31.32039 | -71.18337 | 25132 ft | 408 kts | 354° |
| 2026-04-20 21:07 | -31.29257 | -71.18166 | 24632 ft | 404 kts | 354° |
| 2026-04-20 21:07 | -31.26458 | -71.17994 | 24120 ft | 402 kts | 355° |
| 2026-04-20 21:07 | -31.23676 | -71.17824 | 23615 ft | 399 kts | 355° |
| 2026-04-20 21:08 | -31.20918 | -71.17660 | 23098 ft | 394 kts | 355° |
| 2026-04-20 21:08 | -31.18199 | -71.17501 | 22663 ft | 388 kts | 355° |
| 2026-04-20 21:08 | -31.15524 | -71.17342 | 22225 ft | 382 kts | 355° |
| 2026-04-20 21:08 | -31.12893 | -71.17185 | 21817 ft | 376 kts | 355° |
| 2026-04-20 21:09 | -31.10302 | -71.17030 | 21419 ft | 370 kts | 355° |
| 2026-04-20 21:09 | -31.07749 | -71.16879 | 21025 ft | 364 kts | 355° |
| 2026-04-20 21:09 | -31.05230 | -71.16728 | 20619 ft | 359 kts | 356° |
| 2026-04-20 21:09 | -31.02750 | -71.16577 | 20217 ft | 355 kts | 356° |
| 2026-04-20 21:10 | -31.00294 | -71.16428 | 19822 ft | 351 kts | 356° |
| 2026-04-20 21:10 | -30.97860 | -71.16285 | 19382 ft | 350 kts | 356° |
| 2026-04-20 21:10 | -30.95446 | -71.16144 | 19031 ft | 346 kts | 356° |
| 2026-04-20 21:10 | -30.92972 | -71.16006 | 18711 ft | 362 kts | 357° |
| 2026-04-20 21:11 | -30.90438 | -71.15862 | 18011 ft | 369 kts | 358° |
| 2026-04-20 21:11 | -30.87884 | -71.15708 | 17600 ft | 364 kts | 358° |
| 2026-04-20 21:11 | -30.85366 | -71.15551 | 17162 ft | 361 kts | 358° |
| 2026-04-20 21:11 | -30.82870 | -71.15396 | 16720 ft | 357 kts | 358° |
| 2026-04-20 21:12 | -30.80401 | -71.15242 | 16276 ft | 354 kts | 358° |
| 2026-04-20 21:12 | -30.77987 | -71.15094 | 15839 ft | 351 kts | 359° |
| 2026-04-20 21:12 | -30.75561 | -71.14947 | 15405 ft | 348 kts | 359° |
| 2026-04-20 21:12 | -30.73147 | -71.14804 | 14970 ft | 346 kts | 359° |
| 2026-04-20 21:13 | -30.70754 | -71.14663 | 14546 ft | 344 kts | 359° |
| 2026-04-20 21:13 | -30.68372 | -71.14522 | 14122 ft | 342 kts | 360° |
| 2026-04-20 21:13 | -30.66000 | -71.14381 | 13666 ft | 339 kts | 0° |
| 2026-04-20 21:13 | -30.63657 | -71.14244 | 13241 ft | 335 kts | 0° |
| 2026-04-20 21:14 | -30.61333 | -71.14107 | 12829 ft | 333 kts | 0° |
| 2026-04-20 21:14 | -30.59027 | -71.13970 | 12412 ft | 330 kts | 0° |
| 2026-04-20 21:14 | -30.56731 | -71.13835 | 12004 ft | 329 kts | 0° |
| 2026-04-20 21:14 | -30.54482 | -71.13701 | 11603 ft | 327 kts | 0° |
| 2026-04-20 21:15 | -30.52210 | -71.13566 | 11193 ft | 326 kts | 0° |
| 2026-04-20 21:15 | -30.49949 | -71.13434 | 10789 ft | 324 kts | 1° |
| 2026-04-20 21:15 | -30.47728 | -71.13305 | 10609 ft | 314 kts | 1° |
| 2026-04-20 21:15 | -30.45585 | -71.13178 | 10486 ft | 302 kts | 1° |
| 2026-04-20 21:16 | -30.43521 | -71.13056 | 10365 ft | 291 kts | 1° |
| 2026-04-20 21:16 | -30.41533 | -71.12937 | 10193 ft | 282 kts | 1° |
| 2026-04-20 21:16 | -30.39592 | -71.12819 | 10038 ft | 276 kts | 1° |
| 2026-04-20 21:16 | -30.37669 | -71.12703 | 9758 ft | 276 kts | 1° |
| 2026-04-20 21:17 | -30.36399 | -71.12627 | 9550 ft | 275 kts | 1° |
| 2026-04-20 21:17 | -30.34489 | -71.12514 | 9246 ft | 275 kts | 1° |
| 2026-04-20 21:17 | -30.32580 | -71.12399 | 8948 ft | 274 kts | 1° |
| 2026-04-20 21:17 | -30.30674 | -71.12285 | 8656 ft | 274 kts | 2° |
| 2026-04-20 21:18 | -30.28773 | -71.12173 | 8347 ft | 274 kts | 2° |
| 2026-04-20 21:18 | -30.26867 | -71.12061 | 8043 ft | 274 kts | 1° |
| 2026-04-20 21:18 | -30.24959 | -71.11948 | 7738 ft | 274 kts | 2° |
| 2026-04-20 21:18 | -30.23058 | -71.11826 | 7430 ft | 273 kts | 3° |
| 2026-04-20 21:19 | -30.21163 | -71.11672 | 7144 ft | 273 kts | 4° |
| 2026-04-20 21:19 | -30.19276 | -71.11506 | 6844 ft | 270 kts | 4° |
| 2026-04-20 21:19 | -30.17435 | -71.11339 | 6552 ft | 268 kts | 4° |
| 2026-04-20 21:20 | -30.13756 | -71.11011 | 5945 ft | 262 kts | 4° |
| 2026-04-20 21:20 | -30.11978 | -71.10662 | 5657 ft | 257 kts | 19° |
| 2026-04-20 21:20 | -30.10405 | -71.09742 | 5382 ft | 251 kts | 31° |
| 2026-04-20 21:20 | -30.08944 | -71.08710 | 5126 ft | 243 kts | 31° |
| 2026-04-20 21:21 | -30.07518 | -71.07713 | 4838 ft | 237 kts | 31° |
| 2026-04-20 21:21 | -30.06123 | -71.06740 | 4555 ft | 232 kts | 31° |
| 2026-04-20 21:21 | -30.04752 | -71.05785 | 4288 ft | 228 kts | 31° |
| 2026-04-20 21:21 | -30.03354 | -71.04956 | 4028 ft | 223 kts | 19° |
| 2026-04-20 21:22 | -30.01875 | -71.04612 | 3761 ft | 212 kts | 2° |
| 2026-04-20 21:22 | -30.00454 | -71.04740 | 3489 ft | 203 kts | 347° |
| 2026-04-20 21:22 | -29.99183 | -71.05248 | 3235 ft | 186 kts | 332° |
| 2026-04-20 21:22 | -29.98130 | -71.06028 | 2992 ft | 174 kts | 319° |
| 2026-04-20 21:23 | -29.97327 | -71.06975 | 2770 ft | 158 kts | 306° |
| 2026-04-20 21:23 | -29.96760 | -71.08018 | 2565 ft | 150 kts | 295° |
| 2026-04-20 21:23 | -29.96307 | -71.09092 | 2376 ft | 147 kts | 295° |
| 2026-04-20 21:23 | -29.95854 | -71.10147 | 2180 ft | 146 kts | 295° |
| 2026-04-20 21:24 | -29.95405 | -71.11191 | 1988 ft | 144 kts | 296° |
| 2026-04-20 21:24 | -29.94961 | -71.12223 | 1796 ft | 143 kts | 295° |
| 2026-04-20 21:24 | -29.94518 | -71.13250 | 1605 ft | 143 kts | 295° |
| 2026-04-20 21:24 | -29.94079 | -71.14276 | 1419 ft | 141 kts | 295° |
| 2026-04-20 21:25 | -29.93644 | -71.15291 | 1239 ft | 141 kts | 295° |
| 2026-04-20 21:25 | -29.93210 | -71.16299 | 1048 ft | 140 kts | 295° |
| 2026-04-20 21:25 | -29.92778 | -71.17299 | 834 ft | 139 kts | 294° |
| 2026-04-20 21:25 | -29.92357 | -71.18300 | 657 ft | 138 kts | 294° |
| 2026-04-20 21:26 | -29.91941 | -71.19272 | 492 ft | 130 kts | 295° |
| 2026-04-20 21:26 | -29.91583 | -71.20105 | 478 ft | 84 kts | 297° |
| 2026-04-20 21:26 | -29.91447 | -71.20418 | 483 ft | 22 kts | 297° |
| 2026-04-20 21:26 | -29.91362 | -71.20609 | 482 ft | 32 kts | 297° |
| 2026-04-20 21:27 | -29.91297 | -71.20791 | 479 ft | 18 kts | 274° |
| 2026-04-20 21:27 | -29.91259 | -71.20826 | 481 ft | 9 kts | 113° |
| 2026-04-20 21:27 | -29.91310 | -71.20738 | 478 ft | 13 kts | 116° |
| 2026-04-20 21:27 | -29.91345 | -71.20655 | 484 ft | 9 kts | 116° |
| 2026-04-20 21:28 | -29.91369 | -71.20600 | 480 ft | 6 kts | 116° |
| 2026-04-20 21:28 | -29.91384 | -71.20565 | 481 ft | 3 kts | 116° |
| 2026-04-20 21:28 | -29.91404 | -71.20521 | 484 ft | 12 kts | 116° |
| 2026-04-20 21:28 | -29.91464 | -71.20382 | 479 ft | 23 kts | 116° |
| 2026-04-20 21:29 | -29.91510 | -71.20278 | 478 ft | 9 kts | 129° |
| 2026-04-20 21:29 | -29.91564 | -71.20283 | 483 ft | 8 kts | 207° |
| 2026-04-20 21:29 | -29.91610 | -71.20312 | 480 ft | 7 kts | 208° |
| 2026-04-20 21:29 | -29.91648 | -71.20333 | 479 ft | 4 kts | 205° |
| 2026-04-20 21:30 | -29.91659 | -71.20340 | 481 ft | 0 kts | 206° |